Livorno Express — ZCDV9 — position and weather

sailwx.info

Track history (hours):
 
Tides and Currents Weather Stations Pressure Air Temp Water Temp Dewpoint Dewpoint Depression Visibility Wind Speed Wind Dir Waves Ship Positions

Livorno Express

Last reported at 2014-Jul-28 07:33 UTC. Time now 2014-Jul-28 08:23 UTC.
Position N 44°25' E 008°47'.

Type: Cargo ship. MMSI: 310541000.

Date/timePositionNaut miles runAvg speedWind from/ knotsBaromVisibWave heightAir tempDewpointWater temp
2014-Jul-28 07:33N 44°25' E 008°47'0 0.4
2014-Jul-28 06:34N 44°25' E 008°47'2 1.9
2014-Jul-28 05:34N 44°24' E 008°44'10 9.9
2014-Jul-28 04:33N 44°15' E 008°50'1 0.8
2014-Jul-28 03:33N 44°14' E 008°50'1 0.6
2014-Jul-28 02:33N 44°13' E 008°51'0 0.4
2014-Jul-28 01:34N 44°13' E 008°51'0 0.3
2014-Jul-28 00:33N 44°13' E 008°51'0 0.1
2014-Jul-27 23:34N 44°13' E 008°51'0 0.2
2014-Jul-27 22:34N 44°13' E 008°51'0 0.1
2014-Jul-27 21:33N 44°13' E 008°51'3 3.1
2014-Jul-27 20:34N 44°12' E 008°56'1413.5
2014-Jul-27 19:33N 44°04' E 009°11'1515.0
2014-Jul-27 18:33N 43°56' E 009°28'1514.7
2014-Jul-27 17:33N 43°53' E 009°48'10 9.7
2014-Jul-27 16:34N 44°02' E 009°52'4 3.9
2014-Jul-27 15:33N 44°06' E 009°51'0 0.0
2014-Jul-27 14:33N 44°06' E 009°51'0 0.0
2014-Jul-27 13:33N 44°06' E 009°51'0 0.0
2014-Jul-27 12:33N 44°06' E 009°51'0 0.0
2014-Jul-27 11:32N 44°06' E 009°51'0 0.0
2014-Jul-27 10:32N 44°06' E 009°51'0 0.0
2014-Jul-27 09:32N 44°06' E 009°51'0 0.0
2014-Jul-27 08:32N 44°06' E 009°51'0 0.0
2014-Jul-27 07:32N 44°06' E 009°51'0 0.0
2014-Jul-27 06:32N 44°06' E 009°51'0 0.0
2014-Jul-27 05:32N 44°06' E 009°51'0 0.0
2014-Jul-27 04:32N 44°06' E 009°51'0 0.0
2014-Jul-27 03:32N 44°06' E 009°51'0 0.0
2014-Jul-27 02:32N 44°06' E 009°51'0 0.0
2014-Jul-27 01:32N 44°06' E 009°51'0 0.0
2014-Jul-27 00:32N 44°06' E 009°51'0 0.0
2014-Jul-26 23:32N 44°06' E 009°51'0 0.0
2014-Jul-26 22:32N 44°06' E 009°51'0 0.0
2014-Jul-26 21:32N 44°06' E 009°51'0 0.0
2014-Jul-26 20:32N 44°06' E 009°51'0 0.0
2014-Jul-26 19:32N 44°06' E 009°51'0 0.0
2014-Jul-26 18:32N 44°06' E 009°51'0 0.0
2014-Jul-26 17:32N 44°06' E 009°51'0 0.0
2014-Jul-26 16:32N 44°06' E 009°51'0 0.0
2014-Jul-26 15:32N 44°06' E 009°51'0 0.0
2014-Jul-26 14:32N 44°06' E 009°51'0 0.0
2014-Jul-26 13:32N 44°06' E 009°51'0 0.0
2014-Jul-26 12:32N 44°06' E 009°51'0 0.0
2014-Jul-26 11:32N 44°06' E 009°51'0 0.0
2014-Jul-26 10:32N 44°06' E 009°51'0 0.0
2014-Jul-26 09:32N 44°06' E 009°51'0 0.0
2014-Jul-26 08:32N 44°06' E 009°51'0 0.0
2014-Jul-26 07:32N 44°06' E 009°51'0 0.0
2014-Jul-26 06:32N 44°06' E 009°51'0 0.0
2014-Jul-26 05:32N 44°06' E 009°51'0 0.0
2014-Jul-26 04:32N 44°06' E 009°51'0 0.0
2014-Jul-26 03:32N 44°06' E 009°51'0 0.0
2014-Jul-26 02:32N 44°06' E 009°51'0 0.0
2014-Jul-26 01:32N 44°06' E 009°51'0 0.0
2014-Jul-26 00:32N 44°06' E 009°51'0 0.0
2014-Jul-25 23:32N 44°06' E 009°51'0 0.0
2014-Jul-25 22:32N 44°06' E 009°51'0 0.0
2014-Jul-25 21:32N 44°06' E 009°51'0 0.0
2014-Jul-25 20:29N 44°06' E 009°51'0 0.0
2014-Jul-25 19:32N 44°06' E 009°51'0 0.0
2014-Jul-25 18:32N 44°06' E 009°51'0 0.0
2014-Jul-25 17:32N 44°06' E 009°51'0 0.0
2014-Jul-25 16:32N 44°06' E 009°51'0 0.0
2014-Jul-25 15:29N 44°06' E 009°51'0 0.0
2014-Jul-25 14:32N 44°06' E 009°51'0 0.0
2014-Jul-25 13:32N 44°06' E 009°51'0 0.0
2014-Jul-25 12:32N 44°06' E 009°51'0 0.0
2014-Jul-25 11:32N 44°06' E 009°51'0 0.0
2014-Jul-25 10:29N 44°06' E 009°51'0 0.0
2014-Jul-25 09:32N 44°06' E 009°51'0 0.0
2014-Jul-25 08:32N 44°06' E 009°51'0 0.0
2014-Jul-25 07:32N 44°06' E 009°51'0 0.0
2014-Jul-25 06:32N 44°06' E 009°51'0 0.0
2014-Jul-25 05:32N 44°06' E 009°51'0 0.0
2014-Jul-25 04:29N 44°06' E 009°51'0 0.0
2014-Jul-25 03:29N 44°06' E 009°51'0 0.0
2014-Jul-25 02:32N 44°06' E 009°51'0 0.0
2014-Jul-25 01:32N 44°06' E 009°51'0 0.0
2014-Jul-25 00:32N 44°06' E 009°51'0 0.0
2014-Jul-24 23:29N 44°06' E 009°51'0 0.0
2014-Jul-24 22:32N 44°06' E 009°51'0 0.0
2014-Jul-24 21:32N 44°06' E 009°51'0 0.0
2014-Jul-24 20:32N 44°06' E 009°51'0 0.0
2014-Jul-24 19:32N 44°06' E 009°51'0 0.0
2014-Jul-24 18:32N 44°06' E 009°51'0 0.0
2014-Jul-24 17:32N 44°06' E 009°51'0 0.0
2014-Jul-24 16:29N 44°06' E 009°51'0 0.0
2014-Jul-24 15:32N 44°06' E 009°51'0 0.0
2014-Jul-24 14:32N 44°06' E 009°51'0 0.0
2014-Jul-24 13:32N 44°06' E 009°51'0 0.0
2014-Jul-24 12:32N 44°06' E 009°51'0 0.0
2014-Jul-24 11:32N 44°06' E 009°51'0 0.0
2014-Jul-24 10:32N 44°06' E 009°51'0 0.0
2014-Jul-24 09:32N 44°06' E 009°51'0 0.0
2014-Jul-24 08:32N 44°06' E 009°51'0 0.0
2014-Jul-24 07:32N 44°06' E 009°51'0 0.0
2014-Jul-24 06:32N 44°06' E 009°51'0 0.0
2014-Jul-24 05:32N 44°06' E 009°51'0 0.0
2014-Jul-24 04:32N 44°06' E 009°51'0 0.0
2014-Jul-24 03:29N 44°06' E 009°51'0 0.0
2014-Jul-24 02:32N 44°06' E 009°51'0 0.0
2014-Jul-24 01:32N 44°06' E 009°51'0 0.0
2014-Jul-24 00:32N 44°06' E 009°51'0 0.0
2014-Jul-23 23:32N 44°06' E 009°51'0 0.0
2014-Jul-23 22:32N 44°06' E 009°51'0 0.0
2014-Jul-23 21:32N 44°06' E 009°51'0 0.0
2014-Jul-23 20:32N 44°06' E 009°51'0 0.0
2014-Jul-23 19:29N 44°06' E 009°51'0 0.0
2014-Jul-23 18:32N 44°06' E 009°51'0 0.0
2014-Jul-23 17:29N 44°06' E 009°51'0 0.0
2014-Jul-23 16:29N 44°06' E 009°51'0 0.0
2014-Jul-23 15:29N 44°06' E 009°51'0 0.0
2014-Jul-23 14:32N 44°06' E 009°51'0 0.0
2014-Jul-23 13:32N 44°06' E 009°51'0 0.0
2014-Jul-23 12:32N 44°06' E 009°51'0 0.0
2014-Jul-23 11:32N 44°06' E 009°51'0 0.0
2014-Jul-23 10:32N 44°06' E 009°51'0 0.0
2014-Jul-23 09:32N 44°06' E 009°51'0 0.0
2014-Jul-23 08:32N 44°06' E 009°51'0 0.0
2014-Jul-23 07:32N 44°06' E 009°51'0 0.0
2014-Jul-23 06:32N 44°06' E 009°51'0 0.0
2014-Jul-23 05:26N 44°06' E 009°51'0 0.0
2014-Jul-23 04:32N 44°06' E 009°51'0 0.0
2014-Jul-23 03:32N 44°06' E 009°51'0 0.0
2014-Jul-23 02:32N 44°06' E 009°51'0 0.0
2014-Jul-23 01:32N 44°06' E 009°51'0 0.0
2014-Jul-23 00:32N 44°06' E 009°51'0 0.0
2014-Jul-22 23:32N 44°06' E 009°51'0 0.0
2014-Jul-22 22:32N 44°06' E 009°51'0 0.0
2014-Jul-22 21:32N 44°06' E 009°51'0 0.0
2014-Jul-22 20:32N 44°06' E 009°51'0 0.0
2014-Jul-22 19:32N 44°06' E 009°51'0 0.0
2014-Jul-22 18:32N 44°06' E 009°51'0 0.0
2014-Jul-22 17:32N 44°06' E 009°51'0 0.0
2014-Jul-22 16:32N 44°06' E 009°51'0 0.0
2014-Jul-22 15:32N 44°06' E 009°51'0 0.0
2014-Jul-22 14:32N 44°06' E 009°51'0 0.0
2014-Jul-22 13:32N 44°06' E 009°51'0 0.0
2014-Jul-22 12:32N 44°06' E 009°51'0 0.0
2014-Jul-22 11:32N 44°06' E 009°51'0 0.0
2014-Jul-22 10:32N 44°06' E 009°51'0 0.0
2014-Jul-22 09:32N 44°06' E 009°51'0 0.0
2014-Jul-22 08:32N 44°06' E 009°51'0 0.0
2014-Jul-22 07:32N 44°06' E 009°51'0 0.0
2014-Jul-22 06:32N 44°06' E 009°51'0 0.0
2014-Jul-22 05:32N 44°06' E 009°51'0 0.0
2014-Jul-22 04:32N 44°06' E 009°51'0 0.0
2014-Jul-22 03:32N 44°06' E 009°51'0 0.0
2014-Jul-22 02:32N 44°06' E 009°51'0 0.0
2014-Jul-22 01:32N 44°06' E 009°51'0 0.0
2014-Jul-22 00:32N 44°06' E 009°51'0 0.0
2014-Jul-21 23:32N 44°06' E 009°51'0 0.0
2014-Jul-21 22:29N 44°06' E 009°51'0 0.0
2014-Jul-21 21:32N 44°06' E 009°51'0 0.0
2014-Jul-21 20:29N 44°06' E 009°51'0 0.0
2014-Jul-21 20:14N 44°06' E 009°51'0 0.0
2014-Jul-21 19:32N 44°06' E 009°51'0 0.0
2014-Jul-21 18:32N 44°06' E 009°51'0 0.0
2014-Jul-21 17:32N 44°06' E 009°51'0 0.0
2014-Jul-21 16:32N 44°06' E 009°51'0 0.0
2014-Jul-21 15:32N 44°06' E 009°51'0 0.0
2014-Jul-21 14:32N 44°06' E 009°51'0 0.0
2014-Jul-21 13:29N 44°06' E 009°51'0 0.0
2014-Jul-21 12:32N 44°06' E 009°51'0 0.0
2014-Jul-21 11:32N 44°06' E 009°51'0 0.0
2014-Jul-21 10:32N 44°06' E 009°51'0 0.0
2014-Jul-21 09:32N 44°06' E 009°51'0 0.0
2014-Jul-21 08:29N 44°06' E 009°51'0 0.0
2014-Jul-21 07:32N 44°06' E 009°51'0 0.0
2014-Jul-21 06:32N 44°06' E 009°51'0 0.0
2014-Jul-21 05:32N 44°06' E 009°51'0 0.0
2014-Jul-21 04:32N 44°06' E 009°51'0 0.0
2014-Jul-21 03:32N 44°06' E 009°51'0 0.0
2014-Jul-21 02:32N 44°06' E 009°51'0 0.0
2014-Jul-21 01:29N 44°06' E 009°51'0 0.0
2014-Jul-21 00:32N 44°06' E 009°51'0 0.0
2014-Jul-20 23:32N 44°06' E 009°51'0 0.0
2014-Jul-20 22:32N 44°06' E 009°51'0 0.0
2014-Jul-20 21:29N 44°06' E 009°51'0 0.0
2014-Jul-20 20:32N 44°06' E 009°51'0 0.0
2014-Jul-20 19:32N 44°06' E 009°51'0 0.0
2014-Jul-20 18:32N 44°06' E 009°51'0 0.0
2014-Jul-20 17:32N 44°06' E 009°51'0 0.0
2014-Jul-20 16:29N 44°06' E 009°51'0 0.0
2014-Jul-20 15:29N 44°06' E 009°51'0 0.0
2014-Jul-20 14:32N 44°06' E 009°51'0 0.0
2014-Jul-20 13:32N 44°06' E 009°51'0 0.0
2014-Jul-20 12:32N 44°06' E 009°51'0 0.0
2014-Jul-20 11:32N 44°06' E 009°51'0 0.0
2014-Jul-20 10:29N 44°06' E 009°51'0 0.0
2014-Jul-20 09:32N 44°06' E 009°51'0 0.0
2014-Jul-20 08:32N 44°06' E 009°51'0 0.0
2014-Jul-20 07:32N 44°06' E 009°51'0 0.0
2014-Jul-20 06:32N 44°06' E 009°51'0 0.0
2014-Jul-20 05:32N 44°06' E 009°51'0 0.0
2014-Jul-20 04:29N 44°06' E 009°51'0 0.0
2014-Jul-20 03:32N 44°06' E 009°51'0 0.0
2014-Jul-20 02:32N 44°06' E 009°51'0 0.0
2014-Jul-20 01:32N 44°06' E 009°51'0 0.0
2014-Jul-20 00:29N 44°06' E 009°51'0 0.0
2014-Jul-19 23:32N 44°06' E 009°51'0 0.0
2014-Jul-19 22:32N 44°06' E 009°51'0 0.0
2014-Jul-19 21:32N 44°06' E 009°51'0 0.0
2014-Jul-19 20:32N 44°06' E 009°51'0 0.0
2014-Jul-19 19:29N 44°06' E 009°51'0 0.0
2014-Jul-19 18:29N 44°06' E 009°51'0 0.0
2014-Jul-19 17:32N 44°06' E 009°51'0 0.0
2014-Jul-19 16:32N 44°06' E 009°51'0 0.0
2014-Jul-19 15:32N 44°06' E 009°51'0 0.0
2014-Jul-19 14:29N 44°06' E 009°51'0 0.0
2014-Jul-19 13:32N 44°06' E 009°51'0 0.0
2014-Jul-19 12:32N 44°06' E 009°51'0 0.0
2014-Jul-19 11:32N 44°06' E 009°51'0 0.0
2014-Jul-19 10:29N 44°06' E 009°51'0 0.0
2014-Jul-19 09:32N 44°06' E 009°51'0 0.0
2014-Jul-19 08:32N 44°06' E 009°51'0 0.0
2014-Jul-19 07:32N 44°06' E 009°51'0 0.0
2014-Jul-19 06:29N 44°06' E 009°51'0 0.0
2014-Jul-19 05:29N 44°06' E 009°51'0 0.0
2014-Jul-19 04:32N 44°06' E 009°51'0 0.0
2014-Jul-19 03:32N 44°06' E 009°51'0 0.0
2014-Jul-19 02:32N 44°06' E 009°51'0 0.0
2014-Jul-19 01:32N 44°06' E 009°51'0 0.0
2014-Jul-19 00:32N 44°06' E 009°51'0 0.0
2014-Jul-18 23:29N 44°06' E 009°51'0 0.0
2014-Jul-18 22:32N 44°06' E 009°51'0 0.0
2014-Jul-18 21:32N 44°06' E 009°51'0 0.0
2014-Jul-18 20:32N 44°06' E 009°51'0 0.0
2014-Jul-18 19:29N 44°06' E 009°51'0 0.0
2014-Jul-18 18:32N 44°06' E 009°51'0 0.0
2014-Jul-18 17:32N 44°06' E 009°51'0 0.0
2014-Jul-18 16:32N 44°06' E 009°51'0 0.0
2014-Jul-18 15:32N 44°06' E 009°51'0 0.0
2014-Jul-18 14:32N 44°06' E 009°51'0 0.0
2014-Jul-18 13:32N 44°06' E 009°51'0 0.0
2014-Jul-18 12:29N 44°06' E 009°51'0 0.0
2014-Jul-18 11:32N 44°06' E 009°51'0 0.0
2014-Jul-18 10:32N 44°06' E 009°51'0 0.0
2014-Jul-18 09:32N 44°06' E 009°51'0 0.0
2014-Jul-18 08:32N 44°06' E 009°51'  
Track history (hours):
 
Tides and Currents Weather Stations Pressure Air Temp Water Temp Dewpoint Dewpoint Depression Visibility Wind Speed Wind Dir Waves Ship Positions

Livorno Express

Last reported at 2014-Jul-28 07:33 UTC. Time now 2014-Jul-28 08:23 UTC.
Position N 44°25' E 008°47'.

Type: Cargo ship. MMSI: 310541000.

Date/timePositionNaut miles runAvg speedWind from/ knotsBaromVisibWave heightAir tempDewpointWater temp
2014-Jul-28 07:33N 44°25' E 008°47'0 0.4
2014-Jul-28 06:34N 44°25' E 008°47'2 1.9
2014-Jul-28 05:34N 44°24' E 008°44'10 9.9
2014-Jul-28 04:33N 44°15' E 008°50'1 0.8
2014-Jul-28 03:33N 44°14' E 008°50'1 0.6
2014-Jul-28 02:33N 44°13' E 008°51'0 0.4
2014-Jul-28 01:34N 44°13' E 008°51'0 0.3
2014-Jul-28 00:33N 44°13' E 008°51'0 0.1
2014-Jul-27 23:34N 44°13' E 008°51'0 0.2
2014-Jul-27 22:34N 44°13' E 008°51'0 0.1
2014-Jul-27 21:33N 44°13' E 008°51'3 3.1
2014-Jul-27 20:34N 44°12' E 008°56'1413.5
2014-Jul-27 19:33N 44°04' E 009°11'1515.0
2014-Jul-27 18:33N 43°56' E 009°28'1514.7
2014-Jul-27 17:33N 43°53' E 009°48'10 9.7
2014-Jul-27 16:34N 44°02' E 009°52'4 3.9
2014-Jul-27 15:33N 44°06' E 009°51'0 0.0
2014-Jul-27 14:33N 44°06' E 009°51'0 0.0
2014-Jul-27 13:33N 44°06' E 009°51'0 0.0
2014-Jul-27 12:33N 44°06' E 009°51'0 0.0
2014-Jul-27 11:32N 44°06' E 009°51'0 0.0
2014-Jul-27 10:32N 44°06' E 009°51'0 0.0
2014-Jul-27 09:32N 44°06' E 009°51'0 0.0
2014-Jul-27 08:32N 44°06' E 009°51'0 0.0
2014-Jul-27 07:32N 44°06' E 009°51'0 0.0
2014-Jul-27 06:32N 44°06' E 009°51'0 0.0
2014-Jul-27 05:32N 44°06' E 009°51'0 0.0
2014-Jul-27 04:32N 44°06' E 009°51'0 0.0
2014-Jul-27 03:32N 44°06' E 009°51'0 0.0
2014-Jul-27 02:32N 44°06' E 009°51'0 0.0
2014-Jul-27 01:32N 44°06' E 009°51'0 0.0
2014-Jul-27 00:32N 44°06' E 009°51'0 0.0
2014-Jul-26 23:32N 44°06' E 009°51'0 0.0
2014-Jul-26 22:32N 44°06' E 009°51'0 0.0
2014-Jul-26 21:32N 44°06' E 009°51'0 0.0
2014-Jul-26 20:32N 44°06' E 009°51'0 0.0
2014-Jul-26 19:32N 44°06' E 009°51'0 0.0
2014-Jul-26 18:32N 44°06' E 009°51'0 0.0
2014-Jul-26 17:32N 44°06' E 009°51'0 0.0
2014-Jul-26 16:32N 44°06' E 009°51'0 0.0
2014-Jul-26 15:32N 44°06' E 009°51'0 0.0
2014-Jul-26 14:32N 44°06' E 009°51'0 0.0
2014-Jul-26 13:32N 44°06' E 009°51'0 0.0
2014-Jul-26 12:32N 44°06' E 009°51'0 0.0
2014-Jul-26 11:32N 44°06' E 009°51'0 0.0
2014-Jul-26 10:32N 44°06' E 009°51'0 0.0
2014-Jul-26 09:32N 44°06' E 009°51'0 0.0
2014-Jul-26 08:32N 44°06' E 009°51'0 0.0
2014-Jul-26 07:32N 44°06' E 009°51'0 0.0
2014-Jul-26 06:32N 44°06' E 009°51'0 0.0
2014-Jul-26 05:32N 44°06' E 009°51'0 0.0
2014-Jul-26 04:32N 44°06' E 009°51'0 0.0
2014-Jul-26 03:32N 44°06' E 009°51'0 0.0
2014-Jul-26 02:32N 44°06' E 009°51'0 0.0
2014-Jul-26 01:32N 44°06' E 009°51'0 0.0
2014-Jul-26 00:32N 44°06' E 009°51'0 0.0
2014-Jul-25 23:32N 44°06' E 009°51'0 0.0
2014-Jul-25 22:32N 44°06' E 009°51'0 0.0
2014-Jul-25 21:32N 44°06' E 009°51'0 0.0
2014-Jul-25 20:29N 44°06' E 009°51'0 0.0
2014-Jul-25 19:32N 44°06' E 009°51'0 0.0
2014-Jul-25 18:32N 44°06' E 009°51'0 0.0
2014-Jul-25 17:32N 44°06' E 009°51'0 0.0
2014-Jul-25 16:32N 44°06' E 009°51'0 0.0
2014-Jul-25 15:29N 44°06' E 009°51'0 0.0
2014-Jul-25 14:32N 44°06' E 009°51'0 0.0
2014-Jul-25 13:32N 44°06' E 009°51'0 0.0
2014-Jul-25 12:32N 44°06' E 009°51'0 0.0
2014-Jul-25 11:32N 44°06' E 009°51'0 0.0
2014-Jul-25 10:29N 44°06' E 009°51'0 0.0
2014-Jul-25 09:32N 44°06' E 009°51'0 0.0
2014-Jul-25 08:32N 44°06' E 009°51'0 0.0
2014-Jul-25 07:32N 44°06' E 009°51'0 0.0
2014-Jul-25 06:32N 44°06' E 009°51'0 0.0
2014-Jul-25 05:32N 44°06' E 009°51'0 0.0
2014-Jul-25 04:29N 44°06' E 009°51'0 0.0
2014-Jul-25 03:29N 44°06' E 009°51'0 0.0
2014-Jul-25 02:32N 44°06' E 009°51'0 0.0
2014-Jul-25 01:32N 44°06' E 009°51'0 0.0
2014-Jul-25 00:32N 44°06' E 009°51'0 0.0
2014-Jul-24 23:29N 44°06' E 009°51'0 0.0
2014-Jul-24 22:32N 44°06' E 009°51'0 0.0
2014-Jul-24 21:32N 44°06' E 009°51'0 0.0
2014-Jul-24 20:32N 44°06' E 009°51'0 0.0
2014-Jul-24 19:32N 44°06' E 009°51'0 0.0
2014-Jul-24 18:32N 44°06' E 009°51'0 0.0
2014-Jul-24 17:32N 44°06' E 009°51'0 0.0
2014-Jul-24 16:29N 44°06' E 009°51'0 0.0
2014-Jul-24 15:32N 44°06' E 009°51'0 0.0
2014-Jul-24 14:32N 44°06' E 009°51'0 0.0
2014-Jul-24 13:32N 44°06' E 009°51'0 0.0
2014-Jul-24 12:32N 44°06' E 009°51'0 0.0
2014-Jul-24 11:32N 44°06' E 009°51'0 0.0
2014-Jul-24 10:32N 44°06' E 009°51'0 0.0
2014-Jul-24 09:32N 44°06' E 009°51'0 0.0
2014-Jul-24 08:32N 44°06' E 009°51'0 0.0
2014-Jul-24 07:32N 44°06' E 009°51'0 0.0
2014-Jul-24 06:32N 44°06' E 009°51'0 0.0
2014-Jul-24 05:32N 44°06' E 009°51'0 0.0
2014-Jul-24 04:32N 44°06' E 009°51'0 0.0
2014-Jul-24 03:29N 44°06' E 009°51'0 0.0
2014-Jul-24 02:32N 44°06' E 009°51'0 0.0
2014-Jul-24 01:32N 44°06' E 009°51'0 0.0
2014-Jul-24 00:32N 44°06' E 009°51'0 0.0
2014-Jul-23 23:32N 44°06' E 009°51'0 0.0
2014-Jul-23 22:32N 44°06' E 009°51'0 0.0
2014-Jul-23 21:32N 44°06' E 009°51'0 0.0
2014-Jul-23 20:32N 44°06' E 009°51'0 0.0
2014-Jul-23 19:29N 44°06' E 009°51'0 0.0
2014-Jul-23 18:32N 44°06' E 009°51'0 0.0
2014-Jul-23 17:29N 44°06' E 009°51'0 0.0
2014-Jul-23 16:29N 44°06' E 009°51'0 0.0
2014-Jul-23 15:29N 44°06' E 009°51'0 0.0
2014-Jul-23 14:32N 44°06' E 009°51'0 0.0
2014-Jul-23 13:32N 44°06' E 009°51'0 0.0
2014-Jul-23 12:32N 44°06' E 009°51'0 0.0
2014-Jul-23 11:32N 44°06' E 009°51'0 0.0
2014-Jul-23 10:32N 44°06' E 009°51'0 0.0
2014-Jul-23 09:32N 44°06' E 009°51'0 0.0
2014-Jul-23 08:32N 44°06' E 009°51'0 0.0
2014-Jul-23 07:32N 44°06' E 009°51'0 0.0
2014-Jul-23 06:32N 44°06' E 009°51'0 0.0
2014-Jul-23 05:26N 44°06' E 009°51'0 0.0
2014-Jul-23 04:32N 44°06' E 009°51'0 0.0
2014-Jul-23 03:32N 44°06' E 009°51'0 0.0
2014-Jul-23 02:32N 44°06' E 009°51'0 0.0
2014-Jul-23 01:32N 44°06' E 009°51'0 0.0
2014-Jul-23 00:32N 44°06' E 009°51'0 0.0
2014-Jul-22 23:32N 44°06' E 009°51'0 0.0
2014-Jul-22 22:32N 44°06' E 009°51'0 0.0
2014-Jul-22 21:32N 44°06' E 009°51'0 0.0
2014-Jul-22 20:32N 44°06' E 009°51'0 0.0
2014-Jul-22 19:32N 44°06' E 009°51'0 0.0
2014-Jul-22 18:32N 44°06' E 009°51'0 0.0
2014-Jul-22 17:32N 44°06' E 009°51'0 0.0
2014-Jul-22 16:32N 44°06' E 009°51'0 0.0
2014-Jul-22 15:32N 44°06' E 009°51'0 0.0
2014-Jul-22 14:32N 44°06' E 009°51'0 0.0
2014-Jul-22 13:32N 44°06' E 009°51'0 0.0
2014-Jul-22 12:32N 44°06' E 009°51'0 0.0
2014-Jul-22 11:32N 44°06' E 009°51'0 0.0
2014-Jul-22 10:32N 44°06' E 009°51'0 0.0
2014-Jul-22 09:32N 44°06' E 009°51'0 0.0
2014-Jul-22 08:32N 44°06' E 009°51'0 0.0
2014-Jul-22 07:32N 44°06' E 009°51'0 0.0
2014-Jul-22 06:32N 44°06' E 009°51'0 0.0
2014-Jul-22 05:32N 44°06' E 009°51'0 0.0
2014-Jul-22 04:32N 44°06' E 009°51'0 0.0
2014-Jul-22 03:32N 44°06' E 009°51'0 0.0
2014-Jul-22 02:32N 44°06' E 009°51'0 0.0
2014-Jul-22 01:32N 44°06' E 009°51'0 0.0
2014-Jul-22 00:32N 44°06' E 009°51'0 0.0
2014-Jul-21 23:32N 44°06' E 009°51'0 0.0
2014-Jul-21 22:29N 44°06' E 009°51'0 0.0
2014-Jul-21 21:32N 44°06' E 009°51'0 0.0
2014-Jul-21 20:29N 44°06' E 009°51'0 0.0
2014-Jul-21 20:14N 44°06' E 009°51'0 0.0
2014-Jul-21 19:32N 44°06' E 009°51'0 0.0
2014-Jul-21 18:32N 44°06' E 009°51'0 0.0
2014-Jul-21 17:32N 44°06' E 009°51'0 0.0
2014-Jul-21 16:32N 44°06' E 009°51'0 0.0
2014-Jul-21 15:32N 44°06' E 009°51'0 0.0
2014-Jul-21 14:32N 44°06' E 009°51'0 0.0
2014-Jul-21 13:29N 44°06' E 009°51'0 0.0
2014-Jul-21 12:32N 44°06' E 009°51'0 0.0
2014-Jul-21 11:32N 44°06' E 009°51'0 0.0
2014-Jul-21 10:32N 44°06' E 009°51'0 0.0
2014-Jul-21 09:32N 44°06' E 009°51'0 0.0
2014-Jul-21 08:29N 44°06' E 009°51'0 0.0
2014-Jul-21 07:32N 44°06' E 009°51'0 0.0
2014-Jul-21 06:32N 44°06' E 009°51'0 0.0
2014-Jul-21 05:32N 44°06' E 009°51'0 0.0
2014-Jul-21 04:32N 44°06' E 009°51'0 0.0
2014-Jul-21 03:32N 44°06' E 009°51'0 0.0
2014-Jul-21 02:32N 44°06' E 009°51'0 0.0
2014-Jul-21 01:29N 44°06' E 009°51'0 0.0
2014-Jul-21 00:32N 44°06' E 009°51'0 0.0
2014-Jul-20 23:32N 44°06' E 009°51'0 0.0
2014-Jul-20 22:32N 44°06' E 009°51'0 0.0
2014-Jul-20 21:29N 44°06' E 009°51'0 0.0
2014-Jul-20 20:32N 44°06' E 009°51'0 0.0
2014-Jul-20 19:32N 44°06' E 009°51'0 0.0
2014-Jul-20 18:32N 44°06' E 009°51'0 0.0
2014-Jul-20 17:32N 44°06' E 009°51'0 0.0
2014-Jul-20 16:29N 44°06' E 009°51'0 0.0
2014-Jul-20 15:29N 44°06' E 009°51'0 0.0
2014-Jul-20 14:32N 44°06' E 009°51'0 0.0
2014-Jul-20 13:32N 44°06' E 009°51'0 0.0
2014-Jul-20 12:32N 44°06' E 009°51'0 0.0
2014-Jul-20 11:32N 44°06' E 009°51'0 0.0
2014-Jul-20 10:29N 44°06' E 009°51'0 0.0
2014-Jul-20 09:32N 44°06' E 009°51'0 0.0
2014-Jul-20 08:32N 44°06' E 009°51'0 0.0
2014-Jul-20 07:32N 44°06' E 009°51'0 0.0
2014-Jul-20 06:32N 44°06' E 009°51'0 0.0
2014-Jul-20 05:32N 44°06' E 009°51'0 0.0
2014-Jul-20 04:29N 44°06' E 009°51'0 0.0
2014-Jul-20 03:32N 44°06' E 009°51'0 0.0
2014-Jul-20 02:32N 44°06' E 009°51'0 0.0
2014-Jul-20 01:32N 44°06' E 009°51'0 0.0
2014-Jul-20 00:29N 44°06' E 009°51'0 0.0
2014-Jul-19 23:32N 44°06' E 009°51'0 0.0
2014-Jul-19 22:32N 44°06' E 009°51'0 0.0
2014-Jul-19 21:32N 44°06' E 009°51'0 0.0
2014-Jul-19 20:32N 44°06' E 009°51'0 0.0
2014-Jul-19 19:29N 44°06' E 009°51'0 0.0
2014-Jul-19 18:29N 44°06' E 009°51'0 0.0
2014-Jul-19 17:32N 44°06' E 009°51'0 0.0
2014-Jul-19 16:32N 44°06' E 009°51'0 0.0
2014-Jul-19 15:32N 44°06' E 009°51'0 0.0
2014-Jul-19 14:29N 44°06' E 009°51'0 0.0
2014-Jul-19 13:32N 44°06' E 009°51'0 0.0
2014-Jul-19 12:32N 44°06' E 009°51'0 0.0
2014-Jul-19 11:32N 44°06' E 009°51'0 0.0
2014-Jul-19 10:29N 44°06' E 009°51'0 0.0
2014-Jul-19 09:32N 44°06' E 009°51'0 0.0
2014-Jul-19 08:32N 44°06' E 009°51'0 0.0
2014-Jul-19 07:32N 44°06' E 009°51'0 0.0
2014-Jul-19 06:29N 44°06' E 009°51'0 0.0
2014-Jul-19 05:29N 44°06' E 009°51'0 0.0
2014-Jul-19 04:32N 44°06' E 009°51'0 0.0
2014-Jul-19 03:32N 44°06' E 009°51'0 0.0
2014-Jul-19 02:32N 44°06' E 009°51'0 0.0
2014-Jul-19 01:32N 44°06' E 009°51'0 0.0
2014-Jul-19 00:32N 44°06' E 009°51'0 0.0
2014-Jul-18 23:29N 44°06' E 009°51'0 0.0
2014-Jul-18 22:32N 44°06' E 009°51'0 0.0
2014-Jul-18 21:32N 44°06' E 009°51'0 0.0
2014-Jul-18 20:32N 44°06' E 009°51'0 0.0
2014-Jul-18 19:29N 44°06' E 009°51'0 0.0
2014-Jul-18 18:32N 44°06' E 009°51'0 0.0
2014-Jul-18 17:32N 44°06' E 009°51'0 0.0
2014-Jul-18 16:32N 44°06' E 009°51'0 0.0
2014-Jul-18 15:32N 44°06' E 009°51'0 0.0
2014-Jul-18 14:32N 44°06' E 009°51'0 0.0
2014-Jul-18 13:32N 44°06' E 009°51'0 0.0
2014-Jul-18 12:29N 44°06' E 009°51'0 0.0
2014-Jul-18 11:32N 44°06' E 009°51'0 0.0
2014-Jul-18 10:32N 44°06' E 009°51'0 0.0
2014-Jul-18 09:32N 44°06' E 009°51'0 0.0
2014-Jul-18 08:32N 44°06' E 009°51'  

Dump ship's entire track history